Terminal Aerodrome Forecast
Issued by NWS

Home | Current Version | Previous Version | Text Only | Print | Product List | Glossary On
Versions: 1 2 3 4 5 6 7 8 9 10 11 12 13
000
FTUS45 KREV 221100
TAFMMH
TAF
KMMH 221120Z 2212/2312 VRB04KT P6SM SCT060 SCT150 BKN180
     FM221600 12008KT P6SM SCT060 BKN150 BKN180
     FM222000 23009G17KT P6SM SCT070 SCT150 SCT180
     FM230200 28008G16KT P6SM SCT180
     FM230500 30006KT P6SM SKC
      AMD NOT SKED 2212/2214=

USA.gov is the U.S. government's official web portal to all federal, state and local government web resources and services.